createdAt,value
2023-01-13T00:00:15.307Z,100541.72
2023-01-13T00:02:41.860Z,100535.97
2023-01-13T00:05:09.665Z,100535.50
2023-01-13T00:07:36.225Z,100537.69
2023-01-13T00:10:02.677Z,100522.09
2023-01-13T00:12:29.190Z,100521.59
2023-01-13T00:14:55.704Z,100524.25
2023-01-13T00:17:22.651Z,100525.44
2023-01-13T00:19:49.234Z,100509.44
2023-01-13T00:22:15.684Z,100518.03
2023-01-13T00:24:42.117Z,100515.66
2023-01-13T00:27:08.599Z,100521.31
2023-01-13T00:29:35.045Z,100522.38
2023-01-13T00:32:01.544Z,100531.63
2023-01-13T00:34:28.084Z,100531.81
2023-01-13T00:36:54.614Z,100545.53
2023-01-13T00:39:21.160Z,100543.56
2023-01-13T00:42:06.062Z,100533.16
2023-01-13T00:44:32.554Z,100546.03
2023-01-13T00:46:59.027Z,100527.22
2023-01-13T00:49:25.770Z,100528.41
2023-01-13T00:51:52.270Z,100521.84
2023-01-13T00:54:18.794Z,100520.00
2023-01-13T00:56:45.217Z,100513.25
2023-01-13T00:59:13.493Z,100503.97
2023-01-13T01:01:41.199Z,100503.13
2023-01-13T01:04:07.910Z,100505.97
2023-01-13T01:06:34.493Z,100497.47
2023-01-13T01:09:01.003Z,100497.03
2023-01-13T01:11:29.981Z,100495.38
2023-01-13T01:13:58.434Z,100491.38
2023-01-13T01:16:28.038Z,100471.88
2023-01-13T01:18:54.858Z,100473.88
2023-01-13T01:21:23.150Z,100491.84
2023-01-13T01:23:49.656Z,100488.03
2023-01-13T01:26:23.987Z,100476.81
2023-01-13T01:28:50.667Z,100471.50
2023-01-13T01:31:24.217Z,100473.22
2023-01-13T01:33:51.587Z,100484.25
2023-01-13T01:36:19.833Z,100480.44
2023-01-13T01:38:46.953Z,100486.53
2023-01-13T01:41:16.328Z,100491.84
2023-01-13T01:44:03.857Z,100514.75
2023-01-13T01:46:39.058Z,100521.53
2023-01-13T01:49:09.210Z,100521.72
2023-01-13T01:51:41.512Z,100513.25
2023-01-13T01:54:11.314Z,100510.44
2023-01-13T01:56:41.761Z,100514.88
2023-01-13T01:59:08.810Z,100515.09
2023-01-13T02:01:35.498Z,100512.97
2023-01-13T02:04:09.611Z,100504.19
2023-01-13T02:06:36.596Z,100500.59
2023-01-13T02:09:03.620Z,100493.84
2023-01-13T02:11:53.577Z,100498.78
2023-01-13T02:14:25.214Z,100500.31
2023-01-13T02:17:10.577Z,100508.25
2023-01-13T02:20:08.364Z,100499.31
2023-01-13T02:22:56.237Z,100495.19
2023-01-13T02:25:31.524Z,100484.44
2023-01-13T02:28:25.958Z,100492.84
2023-01-13T02:31:18.669Z,100471.88
2023-01-13T02:33:52.569Z,100482.91
2023-01-13T02:36:37.645Z,100466.47
2023-01-13T02:39:12.183Z,100472.22
2023-01-13T02:42:15.724Z,100471.22
2023-01-13T02:45:02.208Z,100465.88
2023-01-13T02:47:33.755Z,100458.09
2023-01-13T02:50:08.875Z,100454.81
2023-01-13T02:52:43.128Z,100453.16
2023-01-13T02:55:18.478Z,100457.28
2023-01-13T02:57:46.770Z,100451.63
2023-01-13T03:00:15.477Z,100454.75
2023-01-13T03:02:41.944Z,100441.06
2023-01-13T03:05:14.862Z,100453.63
2023-01-13T03:08:10.615Z,100455.72
2023-01-13T03:11:02.996Z,100459.88
2023-01-13T03:13:57.141Z,100454.94
2023-01-13T03:16:45.490Z,100448.16
2023-01-13T03:19:11.916Z,100457.94
2023-01-13T03:21:59.789Z,100452.34
2023-01-13T03:24:38.644Z,100441.50
2023-01-13T03:27:05.098Z,100452.72
2023-01-13T03:29:41.089Z,100437.38
2023-01-13T03:32:17.962Z,100448.13
2023-01-13T03:34:51.674Z,100454.78
2023-01-13T03:37:22.760Z,100452.88
2023-01-13T03:39:55.366Z,100451.78
2023-01-13T03:42:25.235Z,100466.47
2023-01-13T03:44:51.631Z,100470.22
2023-01-13T03:47:33.327Z,100471.81
2023-01-13T03:50:07.243Z,100467.50
2023-01-13T03:52:41.595Z,100440.88
2023-01-13T03:55:11.929Z,100456.09
2023-01-13T03:58:03.426Z,100444.34
2023-01-13T04:00:37.479Z,100455.41
2023-01-13T04:03:15.251Z,100461.53
2023-01-13T04:05:47.395Z,100448.63
2023-01-13T04:08:28.143Z,100444.44
2023-01-13T04:11:06.686Z,100442.13
2023-01-13T04:13:38.151Z,100443.78
2023-01-13T04:16:07.217Z,100441.66
2023-01-13T04:18:37.698Z,100439.38
2023-01-13T04:21:07.874Z,100455.72
2023-01-13T04:23:34.708Z,100453.59
2023-01-13T04:26:01.178Z,100455.16
2023-01-13T04:28:27.709Z,100476.00
2023-01-13T04:30:54.272Z,100451.50
2023-01-13T04:33:20.809Z,100454.50
2023-01-13T04:35:47.986Z,100460.50
2023-01-13T04:38:17.637Z,100455.56
2023-01-13T04:40:44.214Z,100462.31
2023-01-13T04:43:11.055Z,100454.03
2023-01-13T04:45:38.030Z,100469.25
2023-01-13T04:48:05.302Z,100465.31
2023-01-13T04:50:31.810Z,100462.84
2023-01-13T04:52:58.320Z,100460.56
2023-01-13T04:55:25.262Z,100460.44
2023-01-13T04:57:52.086Z,100457.00
2023-01-13T05:00:21.125Z,100453.06
2023-01-13T05:02:50.095Z,100445.56
2023-01-13T05:05:16.904Z,100454.63
2023-01-13T05:07:43.383Z,100448.00
2023-01-13T05:10:10.558Z,100460.50
2023-01-13T05:12:55.455Z,100449.72
2023-01-13T05:15:40.411Z,100447.44
2023-01-13T05:18:07.086Z,100436.88
2023-01-13T05:20:33.572Z,100425.66
2023-01-13T05:23:18.385Z,100435.06
2023-01-13T05:25:48.172Z,100417.56
2023-01-13T05:28:15.114Z,100426.66
2023-01-13T05:30:47.169Z,100434.28
2023-01-13T05:33:16.545Z,100413.16
2023-01-13T05:35:45.895Z,100440.41
2023-01-13T05:38:13.227Z,100442.72
2023-01-13T05:40:59.635Z,100430.13
2023-01-13T05:43:27.080Z,100443.34
2023-01-13T05:46:09.951Z,100440.06
2023-01-13T05:48:38.917Z,100468.66
2023-01-13T05:51:08.154Z,100439.41
2023-01-13T05:53:35.253Z,100447.69
2023-01-13T05:56:05.227Z,100453.34
2023-01-13T05:58:31.939Z,100456.16
2023-01-13T06:01:06.247Z,100443.47
2023-01-13T06:03:32.903Z,100447.13
2023-01-13T06:06:01.669Z,100435.09
2023-01-13T06:08:28.981Z,100448.75
2023-01-13T06:10:55.482Z,100451.59
2023-01-13T06:13:22.959Z,100443.66
2023-01-13T06:15:49.453Z,100443.84
2023-01-13T06:18:15.958Z,100460.53
2023-01-13T06:20:42.460Z,100456.88
2023-01-13T06:23:10.851Z,100457.03
2023-01-13T06:25:56.495Z,100450.75
2023-01-13T06:28:22.962Z,100459.34
2023-01-13T06:30:53.972Z,100455.00
2023-01-13T06:33:26.884Z,100446.06
2023-01-13T06:35:58.174Z,100457.28
2023-01-13T06:38:28.670Z,100450.34
2023-01-13T06:40:55.282Z,100456.09
2023-01-13T06:43:22.068Z,100474.22
2023-01-13T06:45:52.967Z,100472.88
2023-01-13T06:48:32.833Z,100470.88
2023-01-13T06:50:59.777Z,100459.66
2023-01-13T06:53:26.294Z,100468.44
2023-01-13T06:55:52.760Z,100465.94
2023-01-13T06:58:19.242Z,100477.16
2023-01-13T07:00:49.639Z,100473.06
2023-01-13T07:03:17.588Z,100476.72
2023-01-13T07:05:51.704Z,100461.84
2023-01-13T07:08:18.160Z,100484.28
2023-01-13T07:10:44.715Z,100474.72
2023-01-13T07:13:29.405Z,100486.59
2023-01-13T07:16:01.511Z,100484.47
2023-01-13T07:18:31.571Z,100481.66
2023-01-13T07:21:00.402Z,100476.16
2023-01-13T07:23:29.465Z,100496.81
2023-01-13T07:25:57.631Z,100481.59
2023-01-13T07:28:25.421Z,100495.25
2023-01-13T07:30:52.312Z,100494.44
2023-01-13T07:33:19.255Z,100503.03
2023-01-13T07:35:46.566Z,100487.31
2023-01-13T07:38:13.166Z,100493.91
2023-01-13T07:40:40.616Z,100496.19
2023-01-13T07:43:25.606Z,100493.56
2023-01-13T07:46:04.622Z,100502.78
2023-01-13T07:48:33.053Z,100501.97
2023-01-13T07:51:04.209Z,100497.47
2023-01-13T07:53:31.118Z,100520.78
2023-01-13T07:55:58.953Z,100504.19
2023-01-13T07:58:26.727Z,100509.63
2023-01-13T08:00:54.048Z,100503.84
2023-01-13T08:03:21.415Z,100515.72
2023-01-13T08:05:48.381Z,100504.31
2023-01-13T08:08:15.797Z,100508.59
2023-01-13T08:10:42.341Z,100489.72
2023-01-13T08:13:22.576Z,100501.31
2023-01-13T08:15:52.172Z,100502.59
2023-01-13T08:18:22.208Z,100507.06
2023-01-13T08:20:52.928Z,100500.78
2023-01-13T08:23:20.628Z,100516.31
2023-01-13T08:25:47.419Z,100508.53
2023-01-13T08:28:15.739Z,100509.00
2023-01-13T08:30:42.835Z,100513.09
2023-01-13T08:33:11.867Z,100511.28
2023-01-13T08:35:42.174Z,100523.97
2023-01-13T08:38:09.478Z,100532.75
2023-01-13T08:40:36.550Z,100533.81
2023-01-13T08:43:03.482Z,100544.75
2023-01-13T08:45:30.054Z,100541.81
2023-01-13T08:47:56.628Z,100548.63
2023-01-13T08:50:23.441Z,100560.41
2023-01-13T08:52:49.949Z,100555.59
2023-01-13T08:55:16.434Z,100564.91
2023-01-13T08:57:42.956Z,100562.16
2023-01-13T09:00:10.289Z,100580.03
2023-01-13T09:02:38.405Z,100589.47
2023-01-13T09:05:07.411Z,100578.13
2023-01-13T09:07:38.318Z,100582.94
2023-01-13T09:10:07.453Z,100592.69
2023-01-13T09:12:52.358Z,100589.69
2023-01-13T09:15:19.071Z,100585.41
2023-01-13T09:17:45.855Z,100611.50
2023-01-13T09:20:13.262Z,100606.72
2023-01-13T09:22:40.661Z,100607.72
2023-01-13T09:25:07.751Z,100606.91
2023-01-13T09:27:34.269Z,100602.63
2023-01-13T09:30:00.798Z,100623.28
2023-01-13T09:32:27.330Z,100610.09
2023-01-13T09:35:02.971Z,100609.28
2023-01-13T09:37:36.654Z,100606.81
2023-01-13T09:40:16.747Z,100612.28
2023-01-13T09:43:13.352Z,100619.22
2023-01-13T09:45:55.924Z,100624.97
2023-01-13T09:48:29.741Z,100632.41
2023-01-13T09:50:59.001Z,100638.63
2023-01-13T09:53:30.362Z,100636.09
2023-01-13T09:55:57.021Z,100635.75
2023-01-13T09:58:24.874Z,100625.84
2023-01-13T10:00:59.276Z,100644.84
2023-01-13T10:03:30.382Z,100633.25
2023-01-13T10:06:47.966Z,100631.91
2023-01-13T10:09:21.264Z,100616.03
2023-01-13T10:12:10.155Z,100622.78
2023-01-13T10:14:54.311Z,100642.31
